sensor_id;sensor_type;location;lat;lon;timestamp;P1;durP1;ratioP1;P2;durP2;ratioP2
42840;SDS011;28491;46.898;7.660;2023-08-01T00:02:09;7.65;;;4.00;;
42840;SDS011;28491;46.898;7.660;2023-08-01T00:04:35;9.05;;;4.45;;
42840;SDS011;28491;46.898;7.660;2023-08-01T00:07:01;8.00;;;3.75;;
42840;SDS011;28491;46.898;7.660;2023-08-01T00:09:26;6.38;;;3.92;;
42840;SDS011;28491;46.898;7.660;2023-08-01T00:11:52;9.02;;;4.35;;
42840;SDS011;28491;46.898;7.660;2023-08-01T00:14:17;5.15;;;3.03;;
42840;SDS011;28491;46.898;7.660;2023-08-01T00:16:45;7.22;;;4.32;;
42840;SDS011;28491;46.898;7.660;2023-08-01T00:19:10;7.72;;;4.30;;
42840;SDS011;28491;46.898;7.660;2023-08-01T00:21:37;6.25;;;4.43;;
42840;SDS011;28491;46.898;7.660;2023-08-01T00:24:03;8.00;;;4.15;;
42840;SDS011;28491;46.898;7.660;2023-08-01T00:26:30;7.93;;;4.45;;
42840;SDS011;28491;46.898;7.660;2023-08-01T00:28:55;7.45;;;3.92;;
42840;SDS011;28491;46.898;7.660;2023-08-01T00:31:21;7.15;;;4.63;;
42840;SDS011;28491;46.898;7.660;2023-08-01T00:33:46;7.60;;;5.30;;
42840;SDS011;28491;46.898;7.660;2023-08-01T00:36:12;14.07;;;6.35;;
42840;SDS011;28491;46.898;7.660;2023-08-01T00:38:37;9.25;;;4.40;;
42840;SDS011;28491;46.898;7.660;2023-08-01T00:41:03;8.63;;;4.60;;
42840;SDS011;28491;46.898;7.660;2023-08-01T00:43:29;8.80;;;4.40;;
42840;SDS011;28491;46.898;7.660;2023-08-01T00:45:55;5.80;;;3.30;;
42840;SDS011;28491;46.898;7.660;2023-08-01T00:48:25;13.00;;;4.25;;
42840;SDS011;28491;46.898;7.660;2023-08-01T00:50:50;4.93;;;3.50;;
42840;SDS011;28491;46.898;7.660;2023-08-01T00:53:17;5.50;;;3.28;;
42840;SDS011;28491;46.898;7.660;2023-08-01T00:55:43;5.75;;;3.72;;
42840;SDS011;28491;46.898;7.660;2023-08-01T00:58:09;7.13;;;3.85;;
42840;SDS011;28491;46.898;7.660;2023-08-01T01:00:35;6.70;;;3.45;;
42840;SDS011;28491;46.898;7.660;2023-08-01T01:03:01;6.78;;;3.67;;
42840;SDS011;28491;46.898;7.660;2023-08-01T01:05:27;9.27;;;3.38;;
42840;SDS011;28491;46.898;7.660;2023-08-01T01:07:57;5.57;;;3.75;;
42840;SDS011;28491;46.898;7.660;2023-08-01T01:10:23;9.10;;;3.88;;
42840;SDS011;28491;46.898;7.660;2023-08-01T01:12:49;6.78;;;4.07;;
42840;SDS011;28491;46.898;7.660;2023-08-01T01:15:15;8.85;;;4.13;;
42840;SDS011;28491;46.898;7.660;2023-08-01T01:17:40;5.32;;;3.58;;
42840;SDS011;28491;46.898;7.660;2023-08-01T01:20:06;8.85;;;4.20;;
42840;SDS011;28491;46.898;7.660;2023-08-01T01:22:32;7.75;;;4.10;;
42840;SDS011;28491;46.898;7.660;2023-08-01T01:24:59;7.03;;;4.75;;
42840;SDS011;28491;46.898;7.660;2023-08-01T01:27:26;6.22;;;3.47;;
42840;SDS011;28491;46.898;7.660;2023-08-01T01:29:52;5.78;;;3.85;;
42840;SDS011;28491;46.898;7.660;2023-08-01T01:32:22;8.18;;;3.67;;
42840;SDS011;28491;46.898;7.660;2023-08-01T01:34:48;5.80;;;3.85;;
42840;SDS011;28491;46.898;7.660;2023-08-01T01:37:14;7.35;;;3.42;;
42840;SDS011;28491;46.898;7.660;2023-08-01T01:39:39;5.47;;;3.28;;
42840;SDS011;28491;46.898;7.660;2023-08-01T01:42:05;7.60;;;3.80;;
42840;SDS011;28491;46.898;7.660;2023-08-01T01:44:31;7.00;;;3.88;;
42840;SDS011;28491;46.898;7.660;2023-08-01T01:46:57;7.25;;;4.13;;
42840;SDS011;28491;46.898;7.660;2023-08-01T01:49:23;5.93;;;3.60;;
42840;SDS011;28491;46.898;7.660;2023-08-01T01:51:50;5.55;;;3.35;;
42840;SDS011;28491;46.898;7.660;2023-08-01T01:54:16;4.55;;;3.15;;
42840;SDS011;28491;46.898;7.660;2023-08-01T01:56:41;5.30;;;3.15;;
42840;SDS011;28491;46.898;7.660;2023-08-01T01:59:07;5.80;;;2.65;;
42840;SDS011;28491;46.898;7.660;2023-08-01T02:01:32;4.55;;;2.95;;
42840;SDS011;28491;46.898;7.660;2023-08-01T02:03:58;4.80;;;2.72;;
42840;SDS011;28491;46.898;7.660;2023-08-01T02:06:23;5.63;;;3.15;;
42840;SDS011;28491;46.898;7.660;2023-08-01T02:08:49;5.47;;;3.13;;
42840;SDS011;28491;46.898;7.660;2023-08-01T02:11:14;4.65;;;2.92;;
42840;SDS011;28491;46.898;7.660;2023-08-01T02:13:40;6.82;;;3.35;;
42840;SDS011;28491;46.898;7.660;2023-08-01T02:16:05;5.13;;;2.80;;
42840;SDS011;28491;46.898;7.660;2023-08-01T02:18:31;6.82;;;2.80;;
42840;SDS011;28491;46.898;7.660;2023-08-01T02:20:57;4.43;;;2.67;;
42840;SDS011;28491;46.898;7.660;2023-08-01T02:23:22;4.72;;;2.50;;
42840;SDS011;28491;46.898;7.660;2023-08-01T02:25:48;5.75;;;2.95;;
42840;SDS011;28491;46.898;7.660;2023-08-01T02:28:13;7.15;;;2.97;;
42840;SDS011;28491;46.898;7.660;2023-08-01T02:30:39;5.78;;;2.85;;
42840;SDS011;28491;46.898;7.660;2023-08-01T02:33:04;8.48;;;3.78;;
42840;SDS011;28491;46.898;7.660;2023-08-01T02:35:30;9.10;;;2.65;;
42840;SDS011;28491;46.898;7.660;2023-08-01T02:37:55;4.93;;;3.08;;
42840;SDS011;28491;46.898;7.660;2023-08-01T02:40:21;4.68;;;2.80;;
42840;SDS011;28491;46.898;7.660;2023-08-01T02:42:47;3.97;;;2.25;;
42840;SDS011;28491;46.898;7.660;2023-08-01T02:45:13;5.40;;;3.08;;
42840;SDS011;28491;46.898;7.660;2023-08-01T02:47:38;4.70;;;3.22;;
42840;SDS011;28491;46.898;7.660;2023-08-01T02:50:04;4.45;;;2.63;;
42840;SDS011;28491;46.898;7.660;2023-08-01T02:52:30;7.28;;;2.97;;
42840;SDS011;28491;46.898;7.660;2023-08-01T02:54:56;5.50;;;2.83;;
42840;SDS011;28491;46.898;7.660;2023-08-01T02:57:21;5.13;;;2.83;;
42840;SDS011;28491;46.898;7.660;2023-08-01T02:59:47;4.53;;;2.58;;
42840;SDS011;28491;46.898;7.660;2023-08-01T03:02:13;3.72;;;2.17;;
42840;SDS011;28491;46.898;7.660;2023-08-01T03:04:38;6.25;;;3.05;;
42840;SDS011;28491;46.898;7.660;2023-08-01T03:07:04;5.18;;;3.00;;
42840;SDS011;28491;46.898;7.660;2023-08-01T03:09:29;6.10;;;2.97;;
42840;SDS011;28491;46.898;7.660;2023-08-01T03:11:56;5.70;;;2.85;;
42840;SDS011;28491;46.898;7.660;2023-08-01T03:14:22;7.53;;;3.20;;
42840;SDS011;28491;46.898;7.660;2023-08-01T03:16:47;5.47;;;2.33;;
42840;SDS011;28491;46.898;7.660;2023-08-01T03:19:13;6.43;;;2.78;;
42840;SDS011;28491;46.898;7.660;2023-08-01T03:21:38;6.53;;;3.67;;
42840;SDS011;28491;46.898;7.660;2023-08-01T03:24:04;5.38;;;2.80;;
42840;SDS011;28491;46.898;7.660;2023-08-01T03:26:33;4.57;;;2.47;;
42840;SDS011;28491;46.898;7.660;2023-08-01T03:28:59;5.68;;;3.20;;
42840;SDS011;28491;46.898;7.660;2023-08-01T03:31:25;4.38;;;2.92;;
42840;SDS011;28491;46.898;7.660;2023-08-01T03:33:50;6.05;;;3.40;;
42840;SDS011;28491;46.898;7.660;2023-08-01T03:36:16;8.15;;;4.10;;
42840;SDS011;28491;46.898;7.660;2023-08-01T03:38:41;6.25;;;2.40;;
42840;SDS011;28491;46.898;7.660;2023-08-01T03:41:08;6.90;;;3.30;;
42840;SDS011;28491;46.898;7.660;2023-08-01T03:43:33;4.85;;;2.58;;
42840;SDS011;28491;46.898;7.660;2023-08-01T03:45:59;4.75;;;2.75;;
42840;SDS011;28491;46.898;7.660;2023-08-01T03:48:25;5.28;;;2.78;;
42840;SDS011;28491;46.898;7.660;2023-08-01T03:50:50;7.20;;;2.97;;
42840;SDS011;28491;46.898;7.660;2023-08-01T03:53:16;4.93;;;2.78;;
42840;SDS011;28491;46.898;7.660;2023-08-01T03:55:43;6.30;;;2.88;;
42840;SDS011;28491;46.898;7.660;2023-08-01T03:58:09;7.75;;;3.10;;
42840;SDS011;28491;46.898;7.660;2023-08-01T04:00:34;6.00;;;2.80;;
42840;SDS011;28491;46.898;7.660;2023-08-01T04:03:00;6.13;;;2.75;;
42840;SDS011;28491;46.898;7.660;2023-08-01T04:05:26;4.25;;;2.88;;
42840;SDS011;28491;46.898;7.660;2023-08-01T04:07:52;3.95;;;2.50;;
42840;SDS011;28491;46.898;7.660;2023-08-01T04:10:19;4.20;;;2.78;;
42840;SDS011;28491;46.898;7.660;2023-08-01T04:12:46;6.93;;;3.20;;
42840;SDS011;28491;46.898;7.660;2023-08-01T04:15:11;3.38;;;2.45;;
42840;SDS011;28491;46.898;7.660;2023-08-01T04:17:37;4.30;;;2.63;;
42840;SDS011;28491;46.898;7.660;2023-08-01T04:20:02;6.53;;;2.58;;
42840;SDS011;28491;46.898;7.660;2023-08-01T04:22:28;5.43;;;2.38;;
42840;SDS011;28491;46.898;7.660;2023-08-01T04:24:54;3.97;;;2.75;;
42840;SDS011;28491;46.898;7.660;2023-08-01T04:27:19;3.55;;;2.15;;
42840;SDS011;28491;46.898;7.660;2023-08-01T04:29:45;4.20;;;2.38;;
42840;SDS011;28491;46.898;7.660;2023-08-01T04:32:11;5.32;;;2.40;;
42840;SDS011;28491;46.898;7.660;2023-08-01T04:34:38;5.80;;;2.75;;
42840;SDS011;28491;46.898;7.660;2023-08-01T04:37:04;5.85;;;3.03;;
42840;SDS011;28491;46.898;7.660;2023-08-01T04:39:30;5.93;;;3.35;;
42840;SDS011;28491;46.898;7.660;2023-08-01T04:41:55;5.43;;;2.70;;
42840;SDS011;28491;46.898;7.660;2023-08-01T04:44:21;5.45;;;2.85;;
42840;SDS011;28491;46.898;7.660;2023-08-01T04:46:47;5.28;;;3.00;;
42840;SDS011;28491;46.898;7.660;2023-08-01T04:49:13;8.75;;;2.95;;
42840;SDS011;28491;46.898;7.660;2023-08-01T04:51:39;6.43;;;2.58;;
42840;SDS011;28491;46.898;7.660;2023-08-01T04:54:05;5.15;;;2.38;;
42840;SDS011;28491;46.898;7.660;2023-08-01T04:56:30;5.53;;;3.03;;
42840;SDS011;28491;46.898;7.660;2023-08-01T04:58:57;5.70;;;2.83;;
42840;SDS011;28491;46.898;7.660;2023-08-01T05:01:23;5.43;;;2.75;;
42840;SDS011;28491;46.898;7.660;2023-08-01T05:03:48;6.90;;;2.72;;
42840;SDS011;28491;46.898;7.660;2023-08-01T05:06:14;4.10;;;2.20;;
42840;SDS011;28491;46.898;7.660;2023-08-01T05:08:39;4.82;;;2.67;;
42840;SDS011;28491;46.898;7.660;2023-08-01T05:11:05;5.78;;;2.55;;
42840;SDS011;28491;46.898;7.660;2023-08-01T05:13:30;4.53;;;2.50;;
42840;SDS011;28491;46.898;7.660;2023-08-01T05:15:56;6.00;;;3.20;;
42840;SDS011;28491;46.898;7.660;2023-08-01T05:18:22;4.32;;;2.70;;
42840;SDS011;28491;46.898;7.660;2023-08-01T05:20:47;7.13;;;3.35;;
42840;SDS011;28491;46.898;7.660;2023-08-01T05:23:13;6.57;;;3.13;;
42840;SDS011;28491;46.898;7.660;2023-08-01T05:25:38;4.35;;;2.58;;
42840;SDS011;28491;46.898;7.660;2023-08-01T05:28:04;6.65;;;3.15;;
42840;SDS011;28491;46.898;7.660;2023-08-01T05:30:29;5.53;;;2.50;;
42840;SDS011;28491;46.898;7.660;2023-08-01T05:32:55;8.20;;;2.75;;
42840;SDS011;28491;46.898;7.660;2023-08-01T05:35:20;4.15;;;2.47;;
42840;SDS011;28491;46.898;7.660;2023-08-01T05:37:46;4.13;;;2.78;;
42840;SDS011;28491;46.898;7.660;2023-08-01T05:40:12;4.05;;;2.40;;
42840;SDS011;28491;46.898;7.660;2023-08-01T05:42:37;4.80;;;2.80;;
42840;SDS011;28491;46.898;7.660;2023-08-01T05:45:03;3.80;;;2.20;;
42840;SDS011;28491;46.898;7.660;2023-08-01T05:47:30;5.38;;;3.03;;
42840;SDS011;28491;46.898;7.660;2023-08-01T05:49:55;3.53;;;2.45;;
42840;SDS011;28491;46.898;7.660;2023-08-01T05:52:21;4.47;;;2.78;;
42840;SDS011;28491;46.898;7.660;2023-08-01T05:54:47;6.22;;;3.40;;
42840;SDS011;28491;46.898;7.660;2023-08-01T05:57:12;5.25;;;2.70;;
42840;SDS011;28491;46.898;7.660;2023-08-01T05:59:38;5.50;;;2.63;;
42840;SDS011;28491;46.898;7.660;2023-08-01T06:02:04;6.72;;;3.05;;
42840;SDS011;28491;46.898;7.660;2023-08-01T06:04:29;6.60;;;3.28;;
42840;SDS011;28491;46.898;7.660;2023-08-01T06:06:55;4.63;;;2.58;;
42840;SDS011;28491;46.898;7.660;2023-08-01T06:09:21;4.32;;;2.95;;
42840;SDS011;28491;46.898;7.660;2023-08-01T06:11:46;4.60;;;2.55;;
42840;SDS011;28491;46.898;7.660;2023-08-01T06:14:12;4.93;;;2.47;;
42840;SDS011;28491;46.898;7.660;2023-08-01T06:16:38;5.13;;;2.88;;
42840;SDS011;28491;46.898;7.660;2023-08-01T06:19:03;4.60;;;2.60;;
42840;SDS011;28491;46.898;7.660;2023-08-01T06:21:29;5.60;;;3.00;;
42840;SDS011;28491;46.898;7.660;2023-08-01T06:23:55;5.13;;;2.92;;
42840;SDS011;28491;46.898;7.660;2023-08-01T06:26:20;4.43;;;2.65;;
42840;SDS011;28491;46.898;7.660;2023-08-01T06:28:46;4.20;;;2.42;;
42840;SDS011;28491;46.898;7.660;2023-08-01T06:31:11;6.18;;;2.75;;
42840;SDS011;28491;46.898;7.660;2023-08-01T06:33:37;4.93;;;2.75;;
42840;SDS011;28491;46.898;7.660;2023-08-01T06:36:02;3.50;;;2.10;;
42840;SDS011;28491;46.898;7.660;2023-08-01T06:38:28;5.13;;;2.50;;
42840;SDS011;28491;46.898;7.660;2023-08-01T06:40:54;6.57;;;2.78;;
42840;SDS011;28491;46.898;7.660;2023-08-01T06:43:19;6.35;;;3.00;;
42840;SDS011;28491;46.898;7.660;2023-08-01T06:45:45;5.55;;;3.10;;
42840;SDS011;28491;46.898;7.660;2023-08-01T06:48:10;4.70;;;2.83;;
42840;SDS011;28491;46.898;7.660;2023-08-01T06:50:36;7.18;;;2.72;;
42840;SDS011;28491;46.898;7.660;2023-08-01T06:53:05;5.38;;;2.92;;
42840;SDS011;28491;46.898;7.660;2023-08-01T06:55:30;6.28;;;3.47;;
42840;SDS011;28491;46.898;7.660;2023-08-01T06:57:58;5.88;;;2.60;;
42840;SDS011;28491;46.898;7.660;2023-08-01T07:00:24;5.22;;;3.00;;
42840;SDS011;28491;46.898;7.660;2023-08-01T07:02:49;5.20;;;3.20;;
42840;SDS011;28491;46.898;7.660;2023-08-01T07:05:15;6.18;;;3.50;;
42840;SDS011;28491;46.898;7.660;2023-08-01T07:07:41;5.85;;;3.17;;
42840;SDS011;28491;46.898;7.660;2023-08-01T07:10:06;6.30;;;3.15;;
42840;SDS011;28491;46.898;7.660;2023-08-01T07:12:32;5.93;;;3.15;;
42840;SDS011;28491;46.898;7.660;2023-08-01T07:14:58;4.95;;;3.13;;
42840;SDS011;28491;46.898;7.660;2023-08-01T07:17:23;5.10;;;3.25;;
42840;SDS011;28491;46.898;7.660;2023-08-01T07:19:49;7.93;;;3.40;;
42840;SDS011;28491;46.898;7.660;2023-08-01T07:22:14;5.68;;;3.30;;
42840;SDS011;28491;46.898;7.660;2023-08-01T07:24:40;5.60;;;3.55;;
42840;SDS011;28491;46.898;7.660;2023-08-01T07:27:08;5.53;;;2.97;;
42840;SDS011;28491;46.898;7.660;2023-08-01T07:29:34;5.93;;;3.20;;
42840;SDS011;28491;46.898;7.660;2023-08-01T07:31:59;5.75;;;2.97;;
42840;SDS011;28491;46.898;7.660;2023-08-01T07:34:25;5.78;;;3.25;;
42840;SDS011;28491;46.898;7.660;2023-08-01T07:36:50;6.22;;;4.00;;
42840;SDS011;28491;46.898;7.660;2023-08-01T07:39:16;5.28;;;2.95;;
42840;SDS011;28491;46.898;7.660;2023-08-01T07:41:42;6.50;;;2.50;;
42840;SDS011;28491;46.898;7.660;2023-08-01T07:44:07;6.20;;;3.53;;
42840;SDS011;28491;46.898;7.660;2023-08-01T07:46:33;5.93;;;3.22;;
42840;SDS011;28491;46.898;7.660;2023-08-01T07:48:58;5.32;;;3.00;;
42840;SDS011;28491;46.898;7.660;2023-08-01T07:51:27;5.95;;;3.65;;
42840;SDS011;28491;46.898;7.660;2023-08-01T07:53:53;7.22;;;4.25;;
42840;SDS011;28491;46.898;7.660;2023-08-01T07:56:20;9.85;;;5.13;;
42840;SDS011;28491;46.898;7.660;2023-08-01T07:58:45;6.95;;;3.90;;
42840;SDS011;28491;46.898;7.660;2023-08-01T08:01:11;6.45;;;4.18;;
42840;SDS011;28491;46.898;7.660;2023-08-01T08:03:37;5.47;;;3.35;;
42840;SDS011;28491;46.898;7.660;2023-08-01T08:06:03;4.65;;;2.60;;
42840;SDS011;28491;46.898;7.660;2023-08-01T08:08:30;5.65;;;3.50;;
42840;SDS011;28491;46.898;7.660;2023-08-01T08:10:58;5.53;;;3.42;;
42840;SDS011;28491;46.898;7.660;2023-08-01T08:13:24;5.07;;;3.55;;
42840;SDS011;28491;46.898;7.660;2023-08-01T08:15:50;5.80;;;3.53;;
42840;SDS011;28491;46.898;7.660;2023-08-01T08:18:16;4.82;;;3.03;;
42840;SDS011;28491;46.898;7.660;2023-08-01T08:20:44;4.93;;;3.15;;
42840;SDS011;28491;46.898;7.660;2023-08-01T08:23:11;4.07;;;2.88;;
42840;SDS011;28491;46.898;7.660;2023-08-01T08:25:40;7.07;;;3.22;;
42840;SDS011;28491;46.898;7.660;2023-08-01T08:28:06;7.00;;;3.53;;
42840;SDS011;28491;46.898;7.660;2023-08-01T08:30:32;6.68;;;3.38;;
42840;SDS011;28491;46.898;7.660;2023-08-01T08:33:03;6.10;;;3.50;;
42840;SDS011;28491;46.898;7.660;2023-08-01T08:35:35;5.68;;;3.10;;
42840;SDS011;28491;46.898;7.660;2023-08-01T08:38:01;6.20;;;2.63;;
42840;SDS011;28491;46.898;7.660;2023-08-01T08:40:34;4.70;;;2.88;;
42840;SDS011;28491;46.898;7.660;2023-08-01T08:43:06;4.03;;;2.67;;
42840;SDS011;28491;46.898;7.660;2023-08-01T08:45:34;5.35;;;3.15;;
42840;SDS011;28491;46.898;7.660;2023-08-01T08:48:11;4.57;;;2.97;;
42840;SDS011;28491;46.898;7.660;2023-08-01T08:50:42;5.10;;;3.03;;
42840;SDS011;28491;46.898;7.660;2023-08-01T08:53:08;6.07;;;3.30;;
42840;SDS011;28491;46.898;7.660;2023-08-01T08:55:37;5.35;;;3.25;;
42840;SDS011;28491;46.898;7.660;2023-08-01T08:58:04;4.85;;;3.17;;
42840;SDS011;28491;46.898;7.660;2023-08-01T09:00:31;5.55;;;3.25;;
42840;SDS011;28491;46.898;7.660;2023-08-01T09:02:57;6.47;;;3.53;;
42840;SDS011;28491;46.898;7.660;2023-08-01T09:05:27;5.45;;;3.60;;
42840;SDS011;28491;46.898;7.660;2023-08-01T09:08:01;4.63;;;2.70;;
42840;SDS011;28491;46.898;7.660;2023-08-01T09:10:32;5.80;;;3.65;;
42840;SDS011;28491;46.898;7.660;2023-08-01T09:16:09;6.95;;;3.60;;
42840;SDS011;28491;46.898;7.660;2023-08-01T09:18:45;6.57;;;3.30;;
42840;SDS011;28491;46.898;7.660;2023-08-01T09:21:12;5.38;;;3.40;;
42840;SDS011;28491;46.898;7.660;2023-08-01T09:23:38;7.10;;;3.70;;
42840;SDS011;28491;46.898;7.660;2023-08-01T09:26:13;8.65;;;4.15;;
42840;SDS011;28491;46.898;7.660;2023-08-01T09:28:39;6.45;;;3.70;;
42840;SDS011;28491;46.898;7.660;2023-08-01T09:31:05;5.63;;;3.30;;
42840;SDS011;28491;46.898;7.660;2023-08-01T09:33:37;5.20;;;2.90;;
42840;SDS011;28491;46.898;7.660;2023-08-01T09:36:07;6.43;;;4.07;;
42840;SDS011;28491;46.898;7.660;2023-08-01T09:38:36;7.18;;;3.65;;
42840;SDS011;28491;46.898;7.660;2023-08-01T09:41:03;10.48;;;4.10;;
42840;SDS011;28491;46.898;7.660;2023-08-01T09:43:35;5.93;;;3.92;;
42840;SDS011;28491;46.898;7.660;2023-08-01T09:46:01;5.53;;;3.35;;
42840;SDS011;28491;46.898;7.660;2023-08-01T09:48:28;7.45;;;3.90;;
42840;SDS011;28491;46.898;7.660;2023-08-01T09:51:10;5.95;;;3.33;;
42840;SDS011;28491;46.898;7.660;2023-08-01T09:53:51;6.82;;;4.13;;
42840;SDS011;28491;46.898;7.660;2023-08-01T09:56:22;5.20;;;3.50;;
42840;SDS011;28491;46.898;7.660;2023-08-01T09:58:49;5.30;;;3.08;;
42840;SDS011;28491;46.898;7.660;2023-08-01T10:01:16;5.10;;;3.17;;
42840;SDS011;28491;46.898;7.660;2023-08-01T10:03:49;6.57;;;3.95;;
42840;SDS011;28491;46.898;7.660;2023-08-01T10:06:17;8.75;;;4.65;;
42840;SDS011;28491;46.898;7.660;2023-08-01T10:08:48;8.00;;;3.67;;
42840;SDS011;28491;46.898;7.660;2023-08-01T10:11:16;7.60;;;4.22;;
42840;SDS011;28491;46.898;7.660;2023-08-01T10:13:43;5.90;;;3.77;;
42840;SDS011;28491;46.898;7.660;2023-08-01T10:16:09;5.35;;;3.30;;
42840;SDS011;28491;46.898;7.660;2023-08-01T10:18:39;5.38;;;3.30;;
42840;SDS011;28491;46.898;7.660;2023-08-01T10:21:05;7.25;;;3.30;;
42840;SDS011;28491;46.898;7.660;2023-08-01T10:23:35;8.55;;;5.28;;
42840;SDS011;28491;46.898;7.660;2023-08-01T10:28:35;3.75;;;2.38;;
42840;SDS011;28491;46.898;7.660;2023-08-01T10:31:09;7.43;;;2.88;;
42840;SDS011;28491;46.898;7.660;2023-08-01T10:33:39;5.20;;;2.60;;
42840;SDS011;28491;46.898;7.660;2023-08-01T10:36:19;5.60;;;2.92;;
42840;SDS011;28491;46.898;7.660;2023-08-01T10:38:53;6.68;;;3.38;;
42840;SDS011;28491;46.898;7.660;2023-08-01T10:41:36;6.20;;;2.70;;
42840;SDS011;28491;46.898;7.660;2023-08-01T10:44:12;6.03;;;2.50;;
42840;SDS011;28491;46.898;7.660;2023-08-01T10:49:40;6.45;;;2.40;;
42840;SDS011;28491;46.898;7.660;2023-08-01T10:52:20;5.13;;;2.50;;
42840;SDS011;28491;46.898;7.660;2023-08-01T10:54:58;4.45;;;2.63;;
42840;SDS011;28491;46.898;7.660;2023-08-01T10:57:28;3.30;;;2.00;;
42840;SDS011;28491;46.898;7.660;2023-08-01T10:59:56;6.10;;;3.90;;
42840;SDS011;28491;46.898;7.660;2023-08-01T11:02:26;4.78;;;2.70;;
42840;SDS011;28491;46.898;7.660;2023-08-01T11:04:59;6.82;;;3.28;;
42840;SDS011;28491;46.898;7.660;2023-08-01T11:07:28;3.75;;;2.40;;
42840;SDS011;28491;46.898;7.660;2023-08-01T11:10:10;4.45;;;1.85;;
42840;SDS011;28491;46.898;7.660;2023-08-01T11:12:38;5.05;;;3.03;;
42840;SDS011;28491;46.898;7.660;2023-08-01T11:15:05;3.80;;;2.25;;
42840;SDS011;28491;46.898;7.660;2023-08-01T11:17:33;3.70;;;2.07;;
42840;SDS011;28491;46.898;7.660;2023-08-01T11:22:38;3.37;;;2.03;;
42840;SDS011;28491;46.898;7.660;2023-08-01T11:25:33;3.38;;;1.65;;
42840;SDS011;28491;46.898;7.660;2023-08-01T11:28:06;4.35;;;2.03;;
42840;SDS011;28491;46.898;7.660;2023-08-01T11:30:40;12.52;;;3.60;;
42840;SDS011;28491;46.898;7.660;2023-08-01T11:33:21;5.15;;;2.95;;
42840;SDS011;28491;46.898;7.660;2023-08-01T11:36:01;5.28;;;2.40;;
42840;SDS011;28491;46.898;7.660;2023-08-01T11:38:31;3.25;;;1.95;;
42840;SDS011;28491;46.898;7.660;2023-08-01T11:41:00;6.18;;;2.38;;
42840;SDS011;28491;46.898;7.660;2023-08-01T11:43:38;4.40;;;2.30;;
42840;SDS011;28491;46.898;7.660;2023-08-01T11:46:07;4.40;;;2.05;;
42840;SDS011;28491;46.898;7.660;2023-08-01T11:48:34;4.60;;;2.25;;
42840;SDS011;28491;46.898;7.660;2023-08-01T11:51:01;4.95;;;2.35;;
42840;SDS011;28491;46.898;7.660;2023-08-01T11:53:27;4.00;;;2.33;;
42840;SDS011;28491;46.898;7.660;2023-08-01T11:55:53;3.92;;;1.92;;
42840;SDS011;28491;46.898;7.660;2023-08-01T11:58:34;3.17;;;1.97;;
42840;SDS011;28491;46.898;7.660;2023-08-01T12:01:01;3.55;;;1.95;;
42840;SDS011;28491;46.898;7.660;2023-08-01T12:03:27;5.32;;;2.40;;
42840;SDS011;28491;46.898;7.660;2023-08-01T12:06:01;6.57;;;2.25;;
42840;SDS011;28491;46.898;7.660;2023-08-01T12:08:31;4.22;;;2.45;;
42840;SDS011;28491;46.898;7.660;2023-08-01T12:10:57;4.97;;;2.00;;
42840;SDS011;28491;46.898;7.660;2023-08-01T12:13:23;5.57;;;2.15;;
42840;SDS011;28491;46.898;7.660;2023-08-01T12:15:50;3.58;;;2.42;;
42840;SDS011;28491;46.898;7.660;2023-08-01T12:18:22;4.13;;;2.00;;
42840;SDS011;28491;46.898;7.660;2023-08-01T12:20:49;7.30;;;2.20;;
42840;SDS011;28491;46.898;7.660;2023-08-01T12:23:14;4.38;;;2.20;;
42840;SDS011;28491;46.898;7.660;2023-08-01T12:25:40;3.70;;;1.98;;
42840;SDS011;28491;46.898;7.660;2023-08-01T12:28:05;3.70;;;1.98;;
42840;SDS011;28491;46.898;7.660;2023-08-01T12:30:31;4.13;;;2.08;;
42840;SDS011;28491;46.898;7.660;2023-08-01T12:32:56;4.03;;;2.00;;
42840;SDS011;28491;46.898;7.660;2023-08-01T12:35:22;3.08;;;1.75;;
42840;SDS011;28491;46.898;7.660;2023-08-01T12:37:48;5.20;;;2.28;;
42840;SDS011;28491;46.898;7.660;2023-08-01T12:40:13;3.50;;;2.10;;
42840;SDS011;28491;46.898;7.660;2023-08-01T12:42:42;4.05;;;2.40;;
42840;SDS011;28491;46.898;7.660;2023-08-01T12:45:07;4.63;;;2.60;;
42840;SDS011;28491;46.898;7.660;2023-08-01T12:47:33;4.28;;;2.03;;
42840;SDS011;28491;46.898;7.660;2023-08-01T12:50:06;3.75;;;2.40;;
42840;SDS011;28491;46.898;7.660;2023-08-01T12:52:32;3.80;;;2.10;;
42840;SDS011;28491;46.898;7.660;2023-08-01T12:54:58;4.03;;;2.22;;
42840;SDS011;28491;46.898;7.660;2023-08-01T12:57:24;4.35;;;2.55;;
42840;SDS011;28491;46.898;7.660;2023-08-01T12:59:50;3.42;;;1.73;;
42840;SDS011;28491;46.898;7.660;2023-08-01T13:02:15;4.65;;;2.35;;
42840;SDS011;28491;46.898;7.660;2023-08-01T13:04:41;4.32;;;2.47;;
42840;SDS011;28491;46.898;7.660;2023-08-01T13:07:07;4.47;;;2.53;;
42840;SDS011;28491;46.898;7.660;2023-08-01T13:09:33;5.13;;;2.55;;
42840;SDS011;28491;46.898;7.660;2023-08-01T13:11:59;4.43;;;2.38;;
42840;SDS011;28491;46.898;7.660;2023-08-01T13:14:25;6.10;;;2.47;;
42840;SDS011;28491;46.898;7.660;2023-08-01T13:16:50;4.55;;;2.10;;
42840;SDS011;28491;46.898;7.660;2023-08-01T13:19:17;4.25;;;2.75;;
42840;SDS011;28491;46.898;7.660;2023-08-01T13:21:57;3.85;;;2.20;;
42840;SDS011;28491;46.898;7.660;2023-08-01T13:24:26;3.55;;;2.50;;
42840;SDS011;28491;46.898;7.660;2023-08-01T13:26:54;5.57;;;2.10;;
42840;SDS011;28491;46.898;7.660;2023-08-01T13:29:19;5.63;;;2.47;;
42840;SDS011;28491;46.898;7.660;2023-08-01T13:31:45;3.80;;;2.08;;
42840;SDS011;28491;46.898;7.660;2023-08-01T13:34:10;5.57;;;2.72;;
42840;SDS011;28491;46.898;7.660;2023-08-01T13:36:36;4.50;;;2.53;;
42840;SDS011;28491;46.898;7.660;2023-08-01T13:39:02;3.95;;;2.40;;
42840;SDS011;28491;46.898;7.660;2023-08-01T13:41:29;3.70;;;2.25;;
42840;SDS011;28491;46.898;7.660;2023-08-01T13:43:56;3.75;;;2.15;;
42840;SDS011;28491;46.898;7.660;2023-08-01T13:46:22;3.72;;;2.17;;
42840;SDS011;28491;46.898;7.660;2023-08-01T13:48:47;3.72;;;2.33;;
42840;SDS011;28491;46.898;7.660;2023-08-01T13:51:16;4.20;;;2.10;;
42840;SDS011;28491;46.898;7.660;2023-08-01T13:56:10;4.13;;;2.67;;
42840;SDS011;28491;46.898;7.660;2023-08-01T13:58:39;3.17;;;2.17;;
42840;SDS011;28491;46.898;7.660;2023-08-01T14:06:03;3.83;;;2.20;;
42840;SDS011;28491;46.898;7.660;2023-08-01T14:08:33;3.33;;;2.53;;
42840;SDS011;28491;46.898;7.660;2023-08-01T14:10:59;2.95;;;1.95;;
42840;SDS011;28491;46.898;7.660;2023-08-01T14:13:26;3.80;;;2.35;;
42840;SDS011;28491;46.898;7.660;2023-08-01T14:15:51;4.30;;;2.88;;
42840;SDS011;28491;46.898;7.660;2023-08-01T14:18:20;4.50;;;2.40;;
42840;SDS011;28491;46.898;7.660;2023-08-01T14:20:46;5.25;;;2.45;;
42840;SDS011;28491;46.898;7.660;2023-08-01T14:23:11;4.38;;;2.65;;
42840;SDS011;28491;46.898;7.660;2023-08-01T14:25:40;5.47;;;2.92;;
42840;SDS011;28491;46.898;7.660;2023-08-01T14:28:05;4.97;;;2.83;;
42840;SDS011;28491;46.898;7.660;2023-08-01T14:30:31;5.00;;;2.67;;
42840;SDS011;28491;46.898;7.660;2023-08-01T14:33:00;4.80;;;2.67;;
42840;SDS011;28491;46.898;7.660;2023-08-01T14:35:26;4.32;;;2.25;;
42840;SDS011;28491;46.898;7.660;2023-08-01T14:37:52;3.80;;;2.47;;
42840;SDS011;28491;46.898;7.660;2023-08-01T14:40:20;4.78;;;2.72;;
42840;SDS011;28491;46.898;7.660;2023-08-01T14:42:46;3.97;;;2.40;;
42840;SDS011;28491;46.898;7.660;2023-08-01T14:45:11;6.47;;;2.60;;
42840;SDS011;28491;46.898;7.660;2023-08-01T14:47:37;4.90;;;2.67;;
42840;SDS011;28491;46.898;7.660;2023-08-01T14:50:03;3.58;;;2.28;;
42840;SDS011;28491;46.898;7.660;2023-08-01T14:52:29;4.20;;;2.58;;
42840;SDS011;28491;46.898;7.660;2023-08-01T14:54:55;5.20;;;2.90;;
42840;SDS011;28491;46.898;7.660;2023-08-01T14:57:21;3.78;;;2.17;;
42840;SDS011;28491;46.898;7.660;2023-08-01T14:59:47;3.83;;;2.40;;
42840;SDS011;28491;46.898;7.660;2023-08-01T15:02:12;5.80;;;2.10;;
42840;SDS011;28491;46.898;7.660;2023-08-01T15:04:38;2.88;;;1.77;;
42840;SDS011;28491;46.898;7.660;2023-08-01T15:07:04;4.18;;;2.30;;